Skip Navigation LinksHome page > Tools > METAR decoder Skip Navigation Links

METAR decoder

Settings

METAR

Chicago O'Hare Intl, Chicago

For information only: do not use for flight planning or navigation.
Latest weather
Observation time Thursday, July 24, 2014 11:51 AM CDT
Local time Thursday, July 24, 2014 12:06 PM CDT
Flight conditions Visual Meteorological Conditions
Winds
Wind direction Northeast (50°)
Wind speed 13 mph
Visibility 10 mi.
Sky condition
Ceiling unlimited
Cloud layer few clouds 3,800 ft.
Temperature 71°F
Dewpoint 46°F
Altimeter 30.17 in.Hg
Derived measurements
Relative humidity 41%
Density altitude 652 ft.
Sea-level pressure 30.16 in.Hg
Remarks
Automated weather observing station with precipitation discriminator.
METAR KORD 241651Z 05011KT 10SM FEW038 22/08 A3017 RMK AO2 SLP214 T02170078

InnerDrive.Weather 4.0.5294.0 Release CLR 4.0.30319.34014
Copyright ©2014 Inner Drive Technology. All rights reserved. Portions Copyright ©1986-2014 David Braverman.

Find weather

Site navigation


Skip Navigation Links

Place info

Page info

PayPal - The safer, easier way to pay online!

Return home.

Copyright ©2014 Inner Drive Technology. Purveyors of fine, hand-crafted computer software. Page printed 2014-07-24T17:06:54 UTC.